Time;durP1;ratioP1;P1;durP2;ratioP2;P2;SDS_P1;SDS_P2;PMS_P1;PMS_P2;Temp;Humidity;BMP_temperature;BMP_pressure;BME280_temperature;BME280_humidity;BME280_pressure;Samples;Min_cycle;Max_cycle;Signal;HPM_P1;HPM_P2
2023/04/27 00:01:58;;;;;;;3.35;0.80;;;;;;;15.61;49.86;98206.06;5032473;28;20046;-84
2023/04/27 00:04:24;;;;;;;4.25;0.90;;;;;;;15.64;49.83;98217.09;5017101;28;20400;-84
2023/04/27 00:06:50;;;;;;;2.92;0.82;;;;;;;15.62;49.82;98215.59;5035149;28;20072;-84
2023/04/27 00:09:16;;;;;;;4.13;0.70;;;;;;;15.59;49.79;98216.75;5032951;28;20034;-83
2023/04/27 00:11:41;;;;;;;1.00;0.60;;;;;;;15.58;49.76;98225.63;5016789;28;20045;-84
2023/04/27 00:14:06;;;;;;;1.00;0.60;;;;;;;15.55;49.64;98232.03;5017056;28;20026;-84
2023/04/27 00:16:32;;;;;;;1.17;0.60;;;;;;;15.53;49.79;98225.31;5016601;28;20060;-84
2023/04/27 00:18:57;;;;;;;0.90;0.80;;;;;;;15.47;50.00;98225.94;5017377;28;20030;-84
2023/04/27 00:21:23;;;;;;;0.50;0.40;;;;;;;15.43;49.81;98235.13;5033247;28;20144;-84
2023/04/27 00:23:48;;;;;;;1.17;0.50;;;;;;;15.44;49.87;98242.03;5016572;28;20052;-84
2023/04/27 00:26:14;;;;;;;0.80;0.45;;;;;;;15.44;49.95;98245.50;5016782;28;20037;-83
2023/04/27 00:28:39;;;;;;;0.60;0.40;;;;;;;15.39;49.82;98237.25;5016772;28;20029;-84
2023/04/27 00:31:05;;;;;;;0.90;0.40;;;;;;;15.35;49.99;98239.41;5033051;28;20487;-83
2023/04/27 00:33:30;;;;;;;5.70;0.22;;;;;;;15.32;50.00;98237.09;5034670;28;20049;-84
2023/04/27 00:36:00;;;;;;;1.33;0.43;;;;;;;15.32;49.80;98249.38;5016806;28;20473;-84
2023/04/27 00:38:26;;;;;;;0.45;0.30;;;;;;;15.30;50.06;98236.41;5016511;28;20029;-84
2023/04/27 00:41:00;;;;;;;1.75;0.40;;;;;;;15.32;50.11;98254.66;4999930;28;20036;-84
2023/04/27 00:43:25;;;;;;;1.30;0.20;;;;;;;15.30;49.94;98257.44;5016292;28;20044;-84
2023/04/27 00:45:51;;;;;;;1.13;0.50;;;;;;;15.29;50.04;98258.44;5033807;28;20038;-84
2023/04/27 00:48:16;;;;;;;0.85;0.40;;;;;;;15.28;50.07;98255.97;5032869;28;20052;-84
2023/04/27 00:50:42;;;;;;;0.60;0.30;;;;;;;15.27;50.05;98260.38;5015991;28;20125;-84
2023/04/27 00:53:07;;;;;;;0.50;0.30;;;;;;;15.21;50.09;98255.75;5015568;28;20037;-84
2023/04/27 00:55:33;;;;;;;0.38;0.20;;;;;;;15.20;50.18;98264.63;5016301;28;20092;-84
2023/04/27 00:57:58;;;;;;;0.45;0.30;;;;;;;15.22;50.06;98269.75;4999693;28;20492;-84
2023/04/27 01:00:24;;;;;;;0.52;0.35;;;;;;;15.20;50.18;98280.41;5016224;28;20061;-84
2023/04/27 01:02:50;;;;;;;0.30;0.30;;;;;;;15.19;50.34;98287.47;5033814;28;20486;-85
2023/04/27 01:05:15;;;;;;;0.47;0.30;;;;;;;15.19;50.28;98284.03;4999617;28;20038;-85
2023/04/27 01:07:41;;;;;;;0.38;0.30;;;;;;;15.14;50.46;98276.59;5016129;28;20037;-84
2023/04/27 01:10:07;;;;;;;0.43;0.20;;;;;;;15.16;50.54;98284.31;5016374;28;20025;-84
2023/04/27 01:12:32;;;;;;;2.20;0.30;;;;;;;15.14;50.69;98284.47;5032434;28;20029;-84
2023/04/27 01:14:58;;;;;;;0.52;0.28;;;;;;;15.14;50.61;98271.34;5032010;28;20495;-84
2023/04/27 01:17:23;;;;;;;0.65;0.30;;;;;;;15.13;50.76;98274.13;5015437;28;20045;-84
2023/04/27 01:19:50;;;;;;;0.35;0.10;;;;;;;15.14;50.90;98286.31;5015773;28;20037;-84
2023/04/27 01:22:16;;;;;;;0.40;0.20;;;;;;;15.11;51.04;98278.72;5033127;28;20488;-84
2023/04/27 01:24:41;;;;;;;0.35;0.20;;;;;;;15.11;51.19;98284.81;5033069;28;20078;-85
2023/04/27 01:27:07;;;;;;;0.50;0.20;;;;;;;15.07;51.18;98282.63;5031945;28;20052;-85
2023/04/27 01:29:32;;;;;;;0.60;0.20;;;;;;;15.04;51.28;98275.91;5015375;28;20415;-85
2023/04/27 01:31:58;;;;;;;0.38;0.20;;;;;;;15.04;51.26;98280.31;5015767;28;20040;-84
2023/04/27 01:34:23;;;;;;;0.40;0.20;;;;;;;15.05;51.27;98281.97;5015277;28;20549;-84
2023/04/27 01:36:49;;;;;;;1.75;0.35;;;;;;;15.04;51.24;98267.19;5033081;28;20040;-84
2023/04/27 01:39:15;;;;;;;0.73;0.10;;;;;;;14.99;51.31;98271.13;5032948;28;20065;-84
2023/04/27 01:41:40;;;;;;;0.43;0.20;;;;;;;14.99;51.25;98276.38;5031987;28;20029;-84
2023/04/27 01:44:06;;;;;;;0.17;0.10;;;;;;;14.99;51.24;98273.75;5031785;28;20030;-84
2023/04/27 01:46:31;;;;;;;0.32;0.22;;;;;;;14.94;51.08;98277.81;5014776;28;20041;-85
2023/04/27 01:48:57;;;;;;;0.98;0.20;;;;;;;14.95;51.13;98285.53;4998715;28;20476;-85
2023/04/27 01:51:22;;;;;;;0.28;0.22;;;;;;;14.92;51.00;98292.91;5014218;28;20033;-85
2023/04/27 01:53:48;;;;;;;1.48;0.20;;;;;;;14.92;51.00;98304.25;5014216;28;20045;-84
2023/04/27 01:56:13;;;;;;;0.17;0.17;;;;;;;14.93;50.79;98312.97;5015059;28;20038;-85
2023/04/27 01:58:39;;;;;;;0.65;0.20;;;;;;;14.91;50.75;98320.16;5015548;28;20037;-82
2023/04/27 02:01:04;;;;;;;1.10;0.30;;;;;;;14.90;50.66;98321.97;5014748;28;20052;-80
2023/04/27 02:03:30;;;;;;;0.20;0.20;;;;;;;14.90;50.43;98327.25;5014878;28;20424;-80
2023/04/27 02:05:55;;;;;;;0.28;0.20;;;;;;;14.84;50.48;98320.78;5014863;28;20034;-80
2023/04/27 02:08:21;;;;;;;0.25;0.25;;;;;;;14.87;50.40;98335.44;5014977;28;20088;-80
2023/04/27 02:10:46;;;;;;;0.40;0.30;;;;;;;14.86;50.34;98325.88;5015332;28;20033;-80
2023/04/27 02:13:12;;;;;;;0.25;0.20;;;;;;;14.84;50.33;98330.47;5014820;28;20436;-81
2023/04/27 02:15:37;;;;;;;0.40;0.20;;;;;;;14.82;50.25;98320.13;5031218;28;20037;-81
2023/04/27 02:18:03;;;;;;;0.47;0.20;;;;;;;14.79;50.17;98320.44;5014708;28;20033;-80
2023/04/27 02:20:30;;;;;;;0.32;0.22;;;;;;;14.75;50.21;98318.25;5014816;28;20037;-80
2023/04/27 02:22:55;;;;;;;0.17;0.10;;;;;;;14.77;50.14;98326.81;5014644;28;20125;-81
2023/04/27 02:25:21;;;;;;;0.43;0.15;;;;;;;14.74;50.02;98322.69;5031157;28;20037;-80
2023/04/27 02:27:46;;;;;;;0.82;0.10;;;;;;;14.73;50.09;98328.94;5014469;28;20030;-80
2023/04/27 02:30:12;;;;;;;0.57;0.20;;;;;;;14.75;50.27;98334.84;4998751;28;20029;-81
2023/04/27 02:32:38;;;;;;;0.13;0.13;;;;;;;14.73;50.15;98333.38;4998117;28;20523;-80
2023/04/27 02:35:04;;;;;;;0.50;0.20;;;;;;;14.73;50.38;98341.25;5014925;28;20458;-80
2023/04/27 02:37:30;;;;;;;0.70;0.17;;;;;;;14.72;50.40;98344.84;5014506;28;20078;-80
2023/04/27 02:39:55;;;;;;;0.30;0.20;;;;;;;14.71;50.25;98340.59;5014607;28;20033;-80
2023/04/27 02:42:21;;;;;;;0.20;0.17;;;;;;;14.67;50.45;98341.84;5014666;28;20036;-81
2023/04/27 02:44:46;;;;;;;0.32;0.15;;;;;;;14.67;50.75;98347.09;5014328;28;20495;-81
2023/04/27 02:47:12;;;;;;;2.40;0.25;;;;;;;14.64;50.71;98356.09;5014535;28;20460;-80
2023/04/27 02:49:37;;;;;;;5.68;0.20;;;;;;;14.62;50.73;98343.13;5031012;28;20033;-80
2023/04/27 02:52:03;;;;;;;0.55;0.20;;;;;;;14.59;50.68;98351.28;5014373;28;20112;-81
2023/04/27 02:54:29;;;;;;;0.15;0.10;;;;;;;14.58;50.75;98351.44;4996978;28;20038;-81
2023/04/27 02:56:54;;;;;;;0.10;0.10;;;;;;;14.54;50.63;98340.41;5014312;28;20053;-80
2023/04/27 02:59:19;;;;;;;0.15;0.10;;;;;;;14.55;50.78;98355.19;4998091;28;20033;-80
2023/04/27 03:01:45;;;;;;;0.10;0.10;;;;;;;14.51;50.82;98343.34;5014359;28;20049;-80
2023/04/27 03:04:12;;;;;;;0.43;0.10;;;;;;;14.51;50.80;98359.09;4997861;28;20029;-81
2023/04/27 03:06:39;;;;;;;0.82;0.30;;;;;;;14.49;54.68;98361.06;5017924;28;20087;-79
2023/04/27 03:09:04;;;;;;;0.52;0.20;;;;;;;14.48;52.82;98352.38;5035010;28;20029;-88
2023/04/27 03:11:30;;;;;;;1.00;0.40;;;;;;;14.54;59.01;98365.84;5001336;28;20045;-85
2023/04/27 03:13:55;;;;;;;2.60;0.47;;;;;;;14.80;63.69;98358.03;5022843;28;20033;-90
2023/04/27 03:16:20;;;;;;;2.30;0.80;;;;;;;14.81;60.79;98367.56;5018620;28;20060;-87
2023/04/27 03:18:46;;;;;;;2.47;0.40;;;;;;;14.78;60.28;98367.88;5019189;28;20464;-83
2023/04/27 03:21:12;;;;;;;0.60;0.50;;;;;;;14.77;59.48;98374.94;5017544;28;20057;-82
2023/04/27 03:23:37;;;;;;;1.45;0.60;;;;;;;14.71;58.92;98377.38;5000748;28;20061;-88
2023/04/27 03:26:10;;;;;;;2.33;0.35;;;;;;;14.70;58.15;98378.31;5001077;28;20030;-82
2023/04/27 03:28:36;;;;;;;3.70;0.40;;;;;;;14.61;57.52;98365.13;5018466;28;20053;-83
2023/04/27 03:31:08;;;;;;;1.65;0.40;;;;;;;14.63;56.99;98376.31;5018475;28;20037;-81
2023/04/27 03:33:33;;;;;;;0.95;0.40;;;;;;;14.60;56.72;98389.75;5017523;28;20087;-81
2023/04/27 03:35:59;;;;;;;1.05;0.47;;;;;;;14.57;56.41;98394.44;5017874;28;20064;-88
2023/04/27 03:38:25;;;;;;;0.50;0.40;;;;;;;14.52;55.77;98392.28;5017591;28;20037;-73
2023/04/27 03:40:51;;;;;;;0.85;0.50;;;;;;;14.48;55.57;98391.75;5035046;28;20034;-73
2023/04/27 03:43:17;;;;;;;0.70;0.30;;;;;;;14.49;55.35;98410.97;5016992;28;20116;-75
2023/04/27 03:45:42;;;;;;;6.07;0.60;;;;;;;14.65;64.88;98413.75;5017311;28;20032;-75
2023/04/27 03:48:08;;;;;;;6.45;0.70;;;;;;;14.64;61.82;98430.50;5017781;28;20468;-77
2023/04/27 03:50:33;;;;;;;6.43;0.70;;;;;;;14.63;61.17;98426.22;5017047;28;20033;-77
2023/04/27 03:52:59;;;;;;;1.75;0.57;;;;;;;14.61;60.95;98441.31;5017172;28;20025;-77
2023/04/27 03:55:24;;;;;;;2.10;0.50;;;;;;;14.59;60.71;98448.47;5001823;28;20029;-83
2023/04/27 03:57:50;;;;;;;4.85;0.52;;;;;;;14.56;59.99;98450.56;5001309;28;20033;-82
2023/04/27 04:00:17;;;;;;;1.50;0.50;;;;;;;14.54;59.52;98448.09;5016190;28;20045;-79
2023/04/27 04:02:43;;;;;;;3.30;0.80;;;;;;;14.55;59.27;98457.63;5018088;28;20079;-77
2023/04/27 04:05:09;;;;;;;2.60;0.50;;;;;;;14.54;59.08;98463.03;5017266;28;20073;-83
2023/04/27 04:07:34;;;;;;;2.13;0.50;;;;;;;14.47;59.00;98458.38;4995428;28;20459;-80
2023/04/27 04:10:00;;;;;;;2.83;0.40;;;;;;;14.52;58.82;98468.44;5005209;28;20442;-84
2023/04/27 04:12:25;;;;;;;4.63;0.60;;;;;;;14.47;58.63;98458.38;5007387;28;20036;-84
2023/04/27 04:14:51;;;;;;;2.05;0.50;;;;;;;14.50;58.49;98466.91;4995465;28;20046;-90
2023/04/27 04:17:16;;;;;;;0.82;0.40;;;;;;;14.46;58.32;98469.84;5009957;28;20033;-84
2023/04/27 04:19:41;;;;;;;1.25;0.50;;;;;;;14.50;58.30;98477.44;5014284;28;20045;-77
2023/04/27 04:22:07;;;;;;;0.60;0.30;;;;;;;14.45;57.96;98472.63;4980726;28;20085;-80
2023/04/27 04:24:32;;;;;;;0.77;0.40;;;;;;;14.47;58.12;98484.63;4996844;28;20034;-80
2023/04/27 04:26:58;;;;;;;1.77;0.40;;;;;;;14.48;57.74;98493.34;4996197;28;20033;-81
2023/04/27 04:29:27;;;;;;;2.53;0.32;;;;;;;14.47;57.83;98494.34;5012346;28;20125;-80
2023/04/27 04:31:54;;;;;;;0.55;0.35;;;;;;;14.47;57.43;98499.59;5014495;28;20025;-80
2023/04/27 04:34:19;;;;;;;1.33;0.40;;;;;;;14.43;57.49;98490.34;4980661;28;20034;-81
2023/04/27 04:36:45;;;;;;;0.80;0.32;;;;;;;14.45;57.16;98496.25;4996924;28;20026;-80
2023/04/27 04:39:11;;;;;;;1.98;0.25;;;;;;;14.44;57.44;98508.56;5013016;28;20033;-81
2023/04/27 04:41:37;;;;;;;0.70;0.30;;;;;;;14.42;57.40;98507.06;4996660;28;20076;-81
2023/04/27 04:44:02;;;;;;;0.45;0.30;;;;;;;14.43;57.14;98504.28;4979726;28;20041;-81
2023/04/27 04:46:29;;;;;;;1.60;0.50;;;;;;;14.45;56.85;98517.25;4996410;28;20032;-81
2023/04/27 04:48:54;;;;;;;0.65;0.32;;;;;;;14.45;56.82;98520.75;4996314;28;20038;-81
2023/04/27 04:51:20;;;;;;;1.17;0.35;;;;;;;14.47;56.68;98517.97;4979460;28;20041;-82
2023/04/27 04:53:45;;;;;;;2.50;0.50;;;;;;;14.48;56.76;98522.22;5013928;28;20030;-81
2023/04/27 04:56:11;;;;;;;1.33;0.47;;;;;;;14.45;56.47;98522.50;4996268;28;20061;-81
2023/04/27 04:58:37;;;;;;;0.90;0.32;;;;;;;14.51;56.26;98532.44;4996187;28;20120;-81
2023/04/27 05:01:03;;;;;;;1.27;0.52;;;;;;;14.48;56.06;98530.09;4979829;28;20491;-81
2023/04/27 05:03:28;;;;;;;0.45;0.40;;;;;;;14.51;56.00;98529.81;4996689;28;20037;-81
2023/04/27 05:05:57;;;;;;;0.80;0.30;;;;;;;14.54;56.07;98526.88;4980478;28;20037;-82
2023/04/27 05:08:23;;;;;;;0.52;0.40;;;;;;;14.59;55.78;98529.91;4997443;28;20029;-81
2023/04/27 05:10:52;;;;;;;1.52;0.40;;;;;;;14.61;55.87;98522.75;5013052;28;20377;-82
2023/04/27 05:13:19;;;;;;;1.13;0.47;;;;;;;14.68;55.63;98530.84;4996103;28;20524;-82
2023/04/27 05:15:46;;;;;;;1.67;0.45;;;;;;;14.76;55.40;98527.50;4996522;28;20046;-83
2023/04/27 05:18:14;;;;;;;;;;;;;;;14.81;55.26;98530.47;4998701;28;20468;-81
2023/04/27 05:20:46;;;;;;;0.50;0.38;;;;;;;14.82;55.27;98529.53;5014872;28;19913;-80
2023/04/27 05:23:12;;;;;;;0.63;0.43;;;;;;;14.91;55.01;98536.50;5014887;28;20022;-81
2023/04/27 05:25:40;;;;;;;0.90;0.50;;;;;;;15.01;54.47;98541.69;4996918;28;20168;-82
2023/04/27 05:28:11;;;;;;;0.95;0.47;;;;;;;15.08;54.41;98542.72;5012789;28;20033;-81
2023/04/27 05:30:37;;;;;;;1.75;0.60;;;;;;;15.21;54.20;98542.34;4980990;28;20096;-83
2023/04/27 05:33:06;;;;;;;0.95;0.40;;;;;;;15.34;53.77;98544.63;4996815;28;20034;-82
2023/04/27 05:35:31;;;;;;;0.88;0.43;;;;;;;15.50;53.38;98549.16;4980872;28;20033;-82
2023/04/27 05:37:57;;;;;;;0.52;0.30;;;;;;;15.64;53.11;98551.25;4980639;28;20061;-81
2023/04/27 05:40:26;;;;;;;1.27;0.50;;;;;;;15.74;53.21;98546.69;4980862;28;20030;-82
2023/04/27 05:42:51;;;;;;;;;;;;;;;15.86;53.06;98549.94;4967552;28;20042;-82
2023/04/27 05:45:18;;;;;;;1.15;0.52;;;;;;;15.97;52.78;98554.13;4996939;28;20292;-81
2023/04/27 05:47:54;;;;;;;1.10;0.40;;;;;;;16.02;52.74;98540.47;4996838;28;20120;-82
2023/04/27 05:50:21;;;;;;;0.57;0.40;;;;;;;16.19;52.24;98551.91;4998668;28;20049;-81
2023/04/27 05:52:48;;;;;;;1.25;0.63;;;;;;;16.26;52.16;98545.84;4980734;28;20436;-82
2023/04/27 05:55:21;;;;;;;0.30;0.20;;;;;;;16.38;51.78;98543.78;4964028;28;20032;-83
2023/04/27 05:57:47;;;;;;;1.33;0.50;;;;;;;16.43;51.67;98541.47;5014723;28;20036;-83
2023/04/27 06:00:23;;;;;;;0.65;0.40;;;;;;;16.58;51.32;98546.94;4981261;28;20060;-82
2023/04/27 06:02:50;;;;;;;2.00;0.50;;;;;;;16.66;51.21;98546.16;4982355;28;20050;-83
2023/04/27 06:05:16;;;;;;;2.35;0.70;;;;;;;16.79;50.89;98549.16;4963221;28;20050;-81
2023/04/27 06:07:47;;;;;;;1.17;0.50;;;;;;;16.99;50.58;98554.16;4963871;28;20492;-82
2023/04/27 06:10:12;;;;;;;0.90;0.50;;;;;;;17.16;50.01;98550.56;4996055;28;20057;-82
2023/04/27 06:12:38;;;;;;;2.50;0.50;;;;;;;17.32;49.29;98546.28;4962956;28;20048;-81
2023/04/27 06:15:08;;;;;;;0.85;0.50;;;;;;;17.36;48.95;98543.16;4963225;28;20034;-82
2023/04/27 06:17:37;;;;;;;1.05;0.60;;;;;;;17.44;48.70;98552.03;4981133;28;20037;-83
2023/04/27 06:20:07;;;;;;;1.92;0.70;;;;;;;17.45;48.77;98546.59;4980290;28;20022;-82
2023/04/27 06:22:37;;;;;;;0.93;0.45;;;;;;;17.50;48.56;98544.28;4981239;28;20489;-82
2023/04/27 06:25:05;;;;;;;1.58;0.50;;;;;;;17.54;48.38;98544.78;4997970;28;20124;-82
2023/04/27 06:27:50;;;;;;;1.98;0.60;;;;;;;17.60;48.44;98554.69;4998667;28;20481;-84
2023/04/27 06:30:20;;;;;;;1.00;0.55;;;;;;;17.62;48.23;98552.69;5014897;28;20085;-82
2023/04/27 06:32:50;;;;;;;1.35;0.73;;;;;;;17.63;47.94;98554.34;4980869;28;20077;-82
2023/04/27 06:35:17;;;;;;;1.20;0.60;;;;;;;17.65;48.02;98554.19;5020043;28;20045;-89
2023/04/27 06:37:43;;;;;;;1.73;0.60;;;;;;;17.85;58.84;98552.00;5012318;28;20040;-83
2023/04/27 06:40:11;;;;;;;3.22;0.80;;;;;;;17.89;55.69;98548.06;5009007;28;20037;-83
2023/04/27 06:42:38;;;;;;;6.30;0.60;;;;;;;18.10;58.64;98555.44;5030067;28;20041;-84
2023/04/27 06:45:05;;;;;;;3.50;0.60;;;;;;;18.43;57.66;98557.97;5022892;28;20033;-84
2023/04/27 06:47:32;;;;;;;5.95;0.80;;;;;;;18.66;56.77;98555.38;5004461;28;20062;-84
2023/04/27 06:49:58;;;;;;;1.33;0.50;;;;;;;18.85;56.15;98554.16;4987214;28;20046;-82
2023/04/27 06:52:23;;;;;;;2.45;0.63;;;;;;;18.98;56.06;98561.50;5005467;28;20512;-88
2023/04/27 06:54:49;;;;;;;1.95;0.60;;;;;;;19.09;54.86;98570.84;5017374;28;20519;-85
2023/04/27 06:57:14;;;;;;;2.17;0.65;;;;;;;19.05;53.39;98561.63;5019072;28;20029;-89
2023/04/27 06:59:40;;;;;;;1.83;0.70;;;;;;;19.09;52.54;98568.22;5001860;28;20033;-90
2023/04/27 07:02:06;;;;;;;2.72;0.75;;;;;;;19.03;51.35;98569.72;5017298;28;20063;-85
2023/04/27 07:04:31;;;;;;;2.35;0.80;;;;;;;19.01;50.51;98568.25;4996015;28;20224;-86
2023/04/27 07:06:58;;;;;;;2.05;0.80;;;;;;;19.02;52.86;98573.34;5009951;28;20050;-86
2023/04/27 07:09:24;;;;;;;1.98;0.77;;;;;;;18.99;51.71;98579.00;5007688;28;20034;-84
2023/04/27 07:11:51;;;;;;;5.68;0.90;;;;;;;18.93;50.90;98562.03;4989633;28;20469;-84
2023/04/27 07:14:17;;;;;;;3.60;0.80;;;;;;;18.83;50.68;98561.38;5023890;28;20097;-85
2023/04/27 07:16:43;;;;;;;10.27;0.88;;;;;;;18.80;50.13;98583.72;4987052;28;20148;-83
2023/04/27 07:19:11;;;;;;;5.68;0.90;;;;;;;18.77;49.82;98577.94;5021027;28;20089;-85
2023/04/27 07:21:40;;;;;;;2.47;1.05;;;;;;;18.72;49.28;98583.78;5006032;28;20071;-84
2023/04/27 07:24:06;;;;;;;1.98;1.02;;;;;;;18.66;49.06;98587.09;5022365;28;20036;-81
2023/04/27 07:26:32;;;;;;;2.00;1.00;;;;;;;18.65;48.89;98582.00;5002626;28;20519;-81
2023/04/27 07:29:08;;;;;;;2.38;1.10;;;;;;;18.65;48.37;98588.09;4986575;28;20128;-81
2023/04/27 07:31:36;;;;;;;7.20;1.30;;;;;;;18.63;47.92;98582.97;5021589;28;20492;-84
2023/04/27 07:34:02;;;;;;;6.15;1.70;;;;;;;18.57;47.73;98575.72;4998636;28;20082;-84
2023/04/27 07:36:28;;;;;;;3.63;1.40;;;;;;;18.60;47.28;98583.31;4999477;28;20029;-83
2023/04/27 07:38:54;;;;;;;3.20;1.60;;;;;;;18.69;46.78;98596.50;4986985;28;20089;-85
2023/04/27 07:41:22;;;;;;;4.00;1.67;;;;;;;18.69;46.67;98583.28;4987500;28;20034;-84
2023/04/27 07:43:50;;;;;;;;;;;;;;;18.78;46.54;98598.09;5001006;28;20029;-85
2023/04/27 07:46:17;;;;;;;2.90;1.52;;;;;;;18.86;46.06;98594.63;5000243;28;19914;-86
2023/04/27 07:48:43;;;;;;;4.18;1.60;;;;;;;18.97;45.85;98599.53;5000570;28;20040;-85
2023/04/27 07:51:14;;;;;;;4.88;1.80;;;;;;;19.11;45.45;98595.31;4970867;28;20121;-86
2023/04/27 07:53:40;;;;;;;2.33;1.50;;;;;;;19.21;45.15;98598.53;5025418;28;20033;-88
2023/04/27 07:56:06;;;;;;;4.53;1.73;;;;;;;19.37;44.93;98594.13;4985829;28;20040;-86
2023/04/27 07:58:32;;;;;;;3.90;1.80;;;;;;;19.53;44.67;98597.47;4986995;28;20026;-86
2023/04/27 08:00:57;;;;;;;4.13;1.70;;;;;;;19.72;44.17;98587.41;4982473;28;20418;-86
2023/04/27 08:03:23;;;;;;;2.33;1.80;;;;;;;20.13;43.09;98586.19;4998817;28;20105;-83
2023/04/27 08:05:48;;;;;;;6.20;1.80;;;;;;;20.46;42.26;98591.13;4996632;28;20473;-83
2023/04/27 08:08:14;;;;;;;2.95;1.80;;;;;;;21.00;41.35;98584.63;4981215;28;20046;-86
2023/04/27 08:10:41;;;;;;;7.53;2.10;;;;;;;21.19;40.93;98583.19;4981486;28;20030;-85
2023/04/27 08:13:08;;;;;;;3.83;1.77;;;;;;;21.43;40.56;98588.13;4982459;28;20109;-85
2023/04/27 08:15:35;;;;;;;4.88;1.67;;;;;;;21.93;39.82;98590.78;4982978;28;20026;-87
2023/04/27 08:18:00;;;;;;;4.53;1.60;;;;;;;22.04;39.41;98597.41;4983609;28;20065;-85
2023/04/27 08:20:26;;;;;;;8.75;2.08;;;;;;;22.14;39.18;98589.91;4982811;28;20034;-88
2023/04/27 08:22:52;;;;;;;5.25;1.80;;;;;;;22.29;38.35;98597.75;4984436;28;20034;-86
2023/04/27 08:25:18;;;;;;;6.38;1.88;;;;;;;22.41;37.68;98587.44;5001576;28;20501;-86
2023/04/27 08:27:44;;;;;;;4.32;2.00;;;;;;;22.45;37.41;98577.22;4981996;28;20413;-85
2023/04/27 08:30:10;;;;;;;4.15;1.80;;;;;;;22.52;37.26;98578.09;4999421;28;20038;-88
2023/04/27 08:32:36;;;;;;;3.08;1.75;;;;;;;22.61;36.81;98576.06;4985809;28;20090;-86
2023/04/27 08:35:02;;;;;;;4.05;1.88;;;;;;;22.70;36.44;98582.84;4967123;28;20122;-86
2023/04/27 08:37:28;;;;;;;3.92;1.85;;;;;;;22.77;36.22;98581.84;4998227;28;20033;-84
2023/04/27 08:39:53;;;;;;;5.03;1.90;;;;;;;22.89;36.01;98571.44;4965623;28;20038;-85
2023/04/27 08:42:19;;;;;;;4.38;2.30;;;;;;;23.06;35.56;98577.22;4966183;28;20038;-86
2023/04/27 08:44:44;;;;;;;5.50;2.33;;;;;;;23.47;34.83;98580.78;4966469;28;20041;-84
2023/04/27 08:47:10;;;;;;;3.63;2.00;;;;;;;23.59;34.46;98581.78;4999577;28;20097;-84
2023/04/27 08:49:40;;;;;;;3.50;2.05;;;;;;;23.76;34.07;98584.06;4983569;28;20042;-86
2023/04/27 08:52:15;;;;;;;5.40;2.10;;;;;;;24.06;33.68;98571.13;4982970;28;20504;-83
2023/04/27 08:54:41;;;;;;;7.40;2.42;;;;;;;24.33;33.13;98576.41;4981594;28;20026;-82
2023/04/27 08:57:13;;;;;;;3.28;2.00;;;;;;;24.55;32.86;98575.06;4979662;28;20038;-84
2023/04/27 08:59:44;;;;;;;5.10;2.40;;;;;;;25.11;31.75;98564.75;4995461;28;20369;-85
2023/04/27 09:02:19;;;;;;;4.05;2.10;;;;;;;25.47;31.36;98571.31;4965072;28;20501;-85
2023/04/27 09:04:45;;;;;;;3.38;2.20;;;;;;;26.41;30.60;98570.41;4998092;28;20027;-85
2023/04/27 09:07:13;;;;;;;7.07;2.22;;;;;;;26.96;29.85;98561.50;4965287;28;20042;-85
2023/04/27 09:09:38;;;;;;;;;;;;;;;27.62;28.81;98555.13;4980119;28;20073;-86
2023/04/27 09:12:21;;;;;;;6.07;2.25;;;;;;;28.09;27.66;98554.34;4979844;28;19910;-86
2023/04/27 09:14:56;;;;;;;3.65;2.08;;;;;;;28.22;27.53;98558.63;4980131;28;20085;-85
2023/04/27 09:17:26;;;;;;;5.93;2.10;;;;;;;28.20;27.25;98541.16;4980497;28;20100;-84
2023/04/27 09:20:03;;;;;;;4.13;1.95;;;;;;;28.17;26.96;98542.44;4978752;28;20452;-82
2023/04/27 09:22:30;;;;;;;7.60;1.98;;;;;;;28.46;26.66;98537.09;4994904;28;20076;-83
2023/04/27 09:24:55;;;;;;;4.53;2.22;;;;;;;28.00;26.94;98531.59;4978499;28;20036;-83
2023/04/27 09:27:22;;;;;;;3.53;2.05;;;;;;;27.85;27.13;98533.91;4978188;28;20030;-86
2023/04/27 09:29:47;;;;;;;4.00;2.00;;;;;;;27.71;27.29;98531.50;4963704;28;20505;-85
2023/04/27 09:32:16;;;;;;;5.25;1.98;;;;;;;27.97;26.71;98529.41;4963899;28;20040;-87
2023/04/27 09:34:42;;;;;;;3.67;2.20;;;;;;;28.12;26.98;98528.91;4980065;28;20030;-86
2023/04/27 09:37:09;;;;;;;3.17;2.10;;;;;;;28.19;26.80;98518.84;4997084;28;20034;-85
2023/04/27 09:39:35;;;;;;;4.53;2.13;;;;;;;28.16;26.56;98516.66;4979845;28;20401;-84
2023/04/27 09:42:01;;;;;;;5.72;2.00;;;;;;;27.64;27.66;98516.56;4981493;28;20113;-86
2023/04/27 09:44:27;;;;;;;3.25;2.10;;;;;;;27.13;28.18;98516.16;4982174;28;20101;-86
2023/04/27 09:46:52;;;;;;;5.28;1.98;;;;;;;26.52;29.08;98519.66;5002170;28;20105;-88
2023/04/27 09:49:18;;;;;;;4.22;2.00;;;;;;;26.12;29.17;98530.81;4987184;28;20030;-86
2023/04/27 09:51:44;;;;;;;3.63;2.25;;;;;;;25.73;29.76;98532.84;4970489;28;20114;-90
2023/04/27 09:54:09;;;;;;;7.32;2.72;;;;;;;25.32;30.18;98531.56;4985979;28;20030;-86
2023/04/27 09:56:56;;;;;;;9.88;3.72;;;;;;;24.90;30.73;98541.88;4986556;28;20030;-86
2023/04/27 09:59:56;;;;;;;9.00;3.65;;;;;;;24.44;30.98;98543.72;5006025;28;20034;-86
2023/04/27 10:02:22;;;;;;;7.82;3.38;;;;;;;24.04;31.61;98535.88;4983760;28;20054;-86
2023/04/27 10:04:50;;;;;;;7.60;3.50;;;;;;;23.76;32.21;98544.91;5001572;28;20026;-88
2023/04/27 10:07:19;;;;;;;7.70;3.17;;;;;;;23.58;32.60;98542.06;5000211;28;20401;-85
2023/04/27 10:09:50;;;;;;;9.95;3.60;;;;;;;23.43;32.69;98537.75;5007876;28;20030;-85
2023/04/27 10:12:27;;;;;;;11.27;3.30;;;;;;;23.32;32.97;98535.69;4991447;28;20030;-87
2023/04/27 10:14:56;;;;;;;9.48;3.35;;;;;;;23.17;32.89;98533.25;5002677;28;20501;-86
2023/04/27 10:17:32;;;;;;;8.45;2.90;;;;;;;23.07;33.26;98536.28;4982727;28;20038;-85
2023/04/27 10:20:01;;;;;;;10.20;3.15;;;;;;;22.97;33.48;98549.16;4980974;28;20034;-83
2023/04/27 10:22:40;;;;;;;8.30;2.80;;;;;;;22.98;33.03;98539.31;4979408;28;20044;-83
2023/04/27 10:25:23;;;;;;;7.32;2.83;;;;;;;23.03;33.00;98536.88;4965091;28;20038;-85
2023/04/27 10:28:08;;;;;;;11.65;2.92;;;;;;;23.09;32.97;98542.25;4961803;28;20051;-84
2023/04/27 10:30:37;;;;;;;7.15;2.60;;;;;;;22.98;32.70;98534.81;4959957;28;20042;-86
2023/04/27 10:33:06;;;;;;;7.85;2.90;;;;;;;22.94;32.53;98534.41;4957926;28;20057;-86
2023/04/27 10:35:55;;;;;;;9.00;2.70;;;;;;;22.95;32.82;98546.69;4957967;28;20059;-84
2023/04/27 10:38:26;;;;;;;6.43;2.35;;;;;;;22.95;32.64;98544.03;4956566;28;20145;-83
2023/04/27 10:41:01;;;;;;;6.60;2.30;;;;;;;22.89;32.69;98542.16;4960567;28;20097;-86
2023/04/27 11:06:11;;;;;;;5.10;1.58;;;;;;;23.03;31.98;98547.53;5033476;28;20131;-84
2023/04/27 11:08:43;;;;;;;6.03;1.70;;;;;;;22.98;32.23;98549.94;4984966;28;20049;-83
2023/04/27 11:11:13;;;;;;;5.45;1.70;;;;;;;22.86;32.29;98553.22;4985135;28;20037;-85
2023/04/27 11:13:39;;;;;;;4.40;1.85;;;;;;;22.81;32.52;98549.53;4984900;28;20037;-84
2023/04/27 11:16:05;;;;;;;3.53;1.77;;;;;;;22.73;32.58;98555.84;5000711;28;20037;-84
2023/04/27 11:18:32;;;;;;;2.95;1.80;;;;;;;22.63;32.90;98550.06;4987875;28;20041;-86
2023/04/27 11:21:17;;;;;;;4.13;1.80;;;;;;;22.53;32.92;98555.78;5006354;28;20056;-86
2023/04/27 11:23:42;;;;;;;3.70;1.58;;;;;;;22.46;33.20;98555.75;5003075;28;20041;-86
2023/04/27 11:26:13;;;;;;;4.65;1.80;;;;;;;22.41;33.46;98560.84;5002832;28;20021;-85
2023/04/27 11:28:42;;;;;;;3.45;1.83;;;;;;;22.37;33.58;98556.94;4990345;28;20069;-85
2023/04/27 11:31:08;;;;;;;5.32;1.58;;;;;;;22.23;33.79;98563.97;5008360;28;20092;-85
2023/04/27 11:33:33;;;;;;;3.13;1.58;;;;;;;22.07;34.14;98561.66;5006214;28;20037;-87
2023/04/27 11:35:59;;;;;;;4.05;1.58;;;;;;;21.97;33.90;98562.00;4990188;28;20033;-86
2023/04/27 11:38:26;;;;;;;3.33;1.70;;;;;;;21.84;34.15;98560.91;5005139;28;20479;-85
2023/04/27 11:41:02;;;;;;;3.42;1.52;;;;;;;21.66;34.67;98564.06;5004340;28;20445;-86
2023/04/27 11:43:29;;;;;;;3.50;2.00;;;;;;;21.50;35.00;98559.81;5010421;28;20034;-84
2023/04/27 11:45:55;;;;;;;3.75;1.90;;;;;;;21.41;35.10;98568.09;5007224;28;20503;-84
2023/04/27 11:48:22;;;;;;;4.78;2.05;;;;;;;21.28;35.24;98558.97;4997050;28;20049;-86
2023/04/27 11:50:48;;;;;;;4.78;2.67;;;;;;;21.14;35.57;98559.88;4994524;28;20037;-85
2023/04/27 11:53:13;;;;;;;7.97;2.40;;;;;;;21.06;35.85;98567.97;5009200;28;20044;-84
2023/04/27 11:55:40;;;;;;;6.57;2.78;;;;;;;20.99;36.10;98562.59;5006975;28;20029;-85
2023/04/27 11:58:06;;;;;;;8.57;2.55;;;;;;;20.87;36.45;98558.78;4992617;28;20076;-85